Willard, Kentucky
Current Conditions -  °F | °C
As of 8:51 PM on Friday 21 Nov 2014 (Local Time) from KHTS Reporting Station
Clear Clear  
Wind Chill: 28°   Ceiling: Unl
Heat Index: 28°   Visibility: 10mi
Dew Point:   Wind: 3mph
Humidity: 45%   Direction: 100°E
Pressure: 30.44"   Gusts: NA
Location:  38.21°N, 82.9°W
Report Text: KHTS 220151Z 10003KT 10SM CLR M02/M13 A3044 RMK AO2 SLP318 T10221128
Loading
Personal Weather Stations






























Interactive Weather Map New forecast layout! Learn more

10-Day Weather Forecast

Advertisements
Track Severe Weather on mobile